sensor_id;sensor_type;location;lat;lon;timestamp;temperature;humidity
16968;DHT22;64862;54.398;10.126;2023-05-01T00:06:23;6.80;99.90
16968;DHT22;64862;54.398;10.126;2023-05-01T00:16:25;6.70;99.90
16968;DHT22;64862;54.398;10.126;2023-05-01T00:26:29;6.80;99.90
16968;DHT22;64862;54.398;10.126;2023-05-01T00:36:32;6.90;99.90
16968;DHT22;64862;54.398;10.126;2023-05-01T00:46:36;7.20;99.90
16968;DHT22;64862;54.398;10.126;2023-05-01T00:56:39;7.60;99.90
16968;DHT22;64862;54.398;10.126;2023-05-01T01:06:51;7.80;99.90
16968;DHT22;64862;54.398;10.126;2023-05-01T01:16:58;7.70;99.90
16968;DHT22;64862;54.398;10.126;2023-05-01T01:27:23;7.70;99.90
16968;DHT22;64862;54.398;10.126;2023-05-01T01:37:40;7.70;99.90
16968;DHT22;64862;54.398;10.126;2023-05-01T01:47:44;7.60;99.90
16968;DHT22;64862;54.398;10.126;2023-05-01T01:57:49;7.60;99.90
16968;DHT22;64862;54.398;10.126;2023-05-01T02:07:53;7.50;99.90
16968;DHT22;64862;54.398;10.126;2023-05-01T02:17:58;7.50;99.90
16968;DHT22;64862;54.398;10.126;2023-05-01T02:28:08;7.50;99.90
16968;DHT22;64862;54.398;10.126;2023-05-01T02:38:15;7.60;99.90
16968;DHT22;64862;54.398;10.126;2023-05-01T02:48:22;7.60;99.90
16968;DHT22;64862;54.398;10.126;2023-05-01T02:58:29;7.70;99.90
16968;DHT22;64862;54.398;10.126;2023-05-01T03:08:32;7.60;99.90
16968;DHT22;64862;54.398;10.126;2023-05-01T03:18:37;7.60;99.90
16968;DHT22;64862;54.398;10.126;2023-05-01T03:28:39;7.60;99.90
16968;DHT22;64862;54.398;10.126;2023-05-01T03:38:43;7.60;99.90
16968;DHT22;64862;54.398;10.126;2023-05-01T03:49:06;7.60;99.90
16968;DHT22;64862;54.398;10.126;2023-05-01T03:59:17;7.70;99.90
16968;DHT22;64862;54.398;10.126;2023-05-01T04:09:20;7.70;99.90
16968;DHT22;64862;54.398;10.126;2023-05-01T04:19:23;7.70;99.90
16968;DHT22;64862;54.398;10.126;2023-05-01T04:29:31;7.80;99.90
16968;DHT22;64862;54.398;10.126;2023-05-01T04:39:35;7.90;99.90
16968;DHT22;64862;54.398;10.126;2023-05-01T04:49:39;8.20;99.90
16968;DHT22;64862;54.398;10.126;2023-05-01T04:59:43;8.40;99.90
16968;DHT22;64862;54.398;10.126;2023-05-01T05:09:46;8.70;99.90
16968;DHT22;64862;54.398;10.126;2023-05-01T05:19:49;8.90;99.90
16968;DHT22;64862;54.398;10.126;2023-05-01T05:29:51;9.10;99.90
16968;DHT22;64862;54.398;10.126;2023-05-01T05:39:55;9.20;99.90
16968;DHT22;64862;54.398;10.126;2023-05-01T05:49:58;9.80;99.90
16968;DHT22;64862;54.398;10.126;2023-05-01T06:00:02;10.40;99.90
16968;DHT22;64862;54.398;10.126;2023-05-01T06:10:13;10.80;99.90
16968;DHT22;64862;54.398;10.126;2023-05-01T06:20:16;11.20;99.90
16968;DHT22;64862;54.398;10.126;2023-05-01T06:30:21;11.60;99.90
16968;DHT22;64862;54.398;10.126;2023-05-01T06:40:26;11.80;99.90
16968;DHT22;64862;54.398;10.126;2023-05-01T06:50:29;12.10;99.90
16968;DHT22;64862;54.398;10.126;2023-05-01T07:00:41;12.60;99.90
16968;DHT22;64862;54.398;10.126;2023-05-01T07:10:43;12.90;99.90
16968;DHT22;64862;54.398;10.126;2023-05-01T07:20:50;13.00;99.90
16968;DHT22;64862;54.398;10.126;2023-05-01T07:30:52;13.50;99.90
16968;DHT22;64862;54.398;10.126;2023-05-01T07:40:57;13.90;99.90
16968;DHT22;64862;54.398;10.126;2023-05-01T07:51:01;14.60;99.90
16968;DHT22;64862;54.398;10.126;2023-05-01T08:01:07;15.10;99.90
16968;DHT22;64862;54.398;10.126;2023-05-01T08:11:10;15.30;99.90
16968;DHT22;64862;54.398;10.126;2023-05-01T08:21:14;16.10;99.90
16968;DHT22;64862;54.398;10.126;2023-05-01T08:31:16;17.10;99.90
16968;DHT22;64862;54.398;10.126;2023-05-01T08:41:24;17.50;99.90
16968;DHT22;64862;54.398;10.126;2023-05-01T08:51:30;19.70;99.90
16968;DHT22;64862;54.398;10.126;2023-05-01T09:01:36;20.70;99.90
16968;DHT22;64862;54.398;10.126;2023-05-01T09:11:39;22.00;99.70
16968;DHT22;64862;54.398;10.126;2023-05-01T09:21:42;23.30;97.80
16968;DHT22;64862;54.398;10.126;2023-05-01T09:31:45;23.70;94.90
16968;DHT22;64862;54.398;10.126;2023-05-01T09:41:51;23.00;95.10
16968;DHT22;64862;54.398;10.126;2023-05-01T09:52:09;22.90;94.80
16968;DHT22;64862;54.398;10.126;2023-05-01T10:02:27;23.90;94.80
16968;DHT22;64862;54.398;10.126;2023-05-01T10:12:30;25.30;93.00
16968;DHT22;64862;54.398;10.126;2023-05-01T10:22:34;25.80;91.70
16968;DHT22;64862;54.398;10.126;2023-05-01T10:32:37;27.40;90.10
16968;DHT22;64862;54.398;10.126;2023-05-01T10:43:16;25.70;90.30
16968;DHT22;64862;54.398;10.126;2023-05-01T10:53:18;26.80;88.20
16968;DHT22;64862;54.398;10.126;2023-05-01T11:03:37;27.80;89.00
16968;DHT22;64862;54.398;10.126;2023-05-01T11:13:56;24.20;89.30
16968;DHT22;64862;54.398;10.126;2023-05-01T11:24:03;22.40;90.00
16968;DHT22;64862;54.398;10.126;2023-05-01T11:34:05;20.80;91.20
16968;DHT22;64862;54.398;10.126;2023-05-01T11:44:10;20.20;86.70
16968;DHT22;64862;54.398;10.126;2023-05-01T11:54:13;19.90;90.20
16968;DHT22;64862;54.398;10.126;2023-05-01T12:04:24;19.60;92.00
16968;DHT22;64862;54.398;10.126;2023-05-01T12:14:27;19.50;92.50
16968;DHT22;64862;54.398;10.126;2023-05-01T12:24:30;19.50;92.90
16968;DHT22;64862;54.398;10.126;2023-05-01T12:34:32;19.80;92.90
16968;DHT22;64862;54.398;10.126;2023-05-01T12:44:36;19.80;93.80
16968;DHT22;64862;54.398;10.126;2023-05-01T12:54:41;19.60;94.10
16968;DHT22;64862;54.398;10.126;2023-05-01T13:04:44;19.90;94.30
16968;DHT22;64862;54.398;10.126;2023-05-01T13:14:48;19.70;94.60
16968;DHT22;64862;54.398;10.126;2023-05-01T13:24:52;19.90;94.20
16968;DHT22;64862;54.398;10.126;2023-05-01T13:34:58;19.50;95.10
16968;DHT22;64862;54.398;10.126;2023-05-01T13:45:03;19.40;95.20
16968;DHT22;64862;54.398;10.126;2023-05-01T13:55:06;19.00;98.00
16968;DHT22;64862;54.398;10.126;2023-05-01T14:05:10;19.20;98.90
16968;DHT22;64862;54.398;10.126;2023-05-01T14:15:12;19.40;98.70
16968;DHT22;64862;54.398;10.126;2023-05-01T14:25:26;18.50;99.90
16968;DHT22;64862;54.398;10.126;2023-05-01T14:35:29;18.40;99.90
16968;DHT22;64862;54.398;10.126;2023-05-01T14:45:35;18.50;99.90
16968;DHT22;64862;54.398;10.126;2023-05-01T14:55:38;18.30;99.90
16968;DHT22;64862;54.398;10.126;2023-05-01T15:05:41;18.50;99.90
16968;DHT22;64862;54.398;10.126;2023-05-01T15:15:45;18.60;99.90
16968;DHT22;64862;54.398;10.126;2023-05-01T15:25:49;18.40;99.90
16968;DHT22;64862;54.398;10.126;2023-05-01T15:35:51;18.80;99.90
16968;DHT22;64862;54.398;10.126;2023-05-01T15:45:54;18.10;99.90
16968;DHT22;64862;54.398;10.126;2023-05-01T15:55:59;18.20;99.90
16968;DHT22;64862;54.398;10.126;2023-05-01T16:06:02;18.20;99.90
16968;DHT22;64862;54.398;10.126;2023-05-01T16:16:07;18.10;99.90
16968;DHT22;64862;54.398;10.126;2023-05-01T16:26:11;18.00;99.90
16968;DHT22;64862;54.398;10.126;2023-05-01T16:36:14;17.90;99.90
16968;DHT22;64862;54.398;10.126;2023-05-01T16:46:18;17.40;99.90
16968;DHT22;64862;54.398;10.126;2023-05-01T16:56:20;17.20;99.90
16968;DHT22;64862;54.398;10.126;2023-05-01T17:06:24;17.10;99.90
16968;DHT22;64862;54.398;10.126;2023-05-01T17:16:26;16.80;99.90
16968;DHT22;64862;54.398;10.126;2023-05-01T17:26:29;16.50;99.90
16968;DHT22;64862;54.398;10.126;2023-05-01T17:36:31;16.30;99.90
16968;DHT22;64862;54.398;10.126;2023-05-01T17:46:35;16.00;99.90
16968;DHT22;64862;54.398;10.126;2023-05-01T17:56:38;15.70;99.90
16968;DHT22;64862;54.398;10.126;2023-05-01T18:06:42;15.50;99.90
16968;DHT22;64862;54.398;10.126;2023-05-01T18:16:44;15.20;99.90
16968;DHT22;64862;54.398;10.126;2023-05-01T18:26:47;15.00;99.90
16968;DHT22;64862;54.398;10.126;2023-05-01T18:36:50;14.80;99.90
16968;DHT22;64862;54.398;10.126;2023-05-01T18:46:55;14.50;99.90
16968;DHT22;64862;54.398;10.126;2023-05-01T18:56:57;14.20;99.90
16968;DHT22;64862;54.398;10.126;2023-05-01T19:07:00;13.90;99.90
16968;DHT22;64862;54.398;10.126;2023-05-01T19:17:02;13.60;99.90
16968;DHT22;64862;54.398;10.126;2023-05-01T19:27:06;13.40;99.90
16968;DHT22;64862;54.398;10.126;2023-05-01T19:37:08;13.20;99.90
16968;DHT22;64862;54.398;10.126;2023-05-01T19:47:13;12.90;99.90
16968;DHT22;64862;54.398;10.126;2023-05-01T19:57:15;12.60;99.90
16968;DHT22;64862;54.398;10.126;2023-05-01T20:07:18;12.50;99.90
16968;DHT22;64862;54.398;10.126;2023-05-01T20:17:20;12.30;99.90
16968;DHT22;64862;54.398;10.126;2023-05-01T20:27:23;12.10;99.90
16968;DHT22;64862;54.398;10.126;2023-05-01T20:37:25;12.00;99.90
16968;DHT22;64862;54.398;10.126;2023-05-01T20:47:29;11.90;99.90
16968;DHT22;64862;54.398;10.126;2023-05-01T20:57:31;11.90;99.90
16968;DHT22;64862;54.398;10.126;2023-05-01T21:07:36;11.70;99.90
16968;DHT22;64862;54.398;10.126;2023-05-01T21:17:39;11.60;99.90
16968;DHT22;64862;54.398;10.126;2023-05-01T21:27:44;11.50;99.90
16968;DHT22;64862;54.398;10.126;2023-05-01T21:37:46;11.40;99.90
16968;DHT22;64862;54.398;10.126;2023-05-01T21:47:50;11.20;99.90
16968;DHT22;64862;54.398;10.126;2023-05-01T21:57:52;11.30;99.90
16968;DHT22;64862;54.398;10.126;2023-05-01T22:07:56;11.30;99.90
16968;DHT22;64862;54.398;10.126;2023-05-01T22:17:58;11.30;99.90
16968;DHT22;64862;54.398;10.126;2023-05-01T22:28:04;11.30;99.90
16968;DHT22;64862;54.398;10.126;2023-05-01T22:38:07;11.50;99.90
16968;DHT22;64862;54.398;10.126;2023-05-01T22:48:11;11.70;99.90
16968;DHT22;64862;54.398;10.126;2023-05-01T22:58:13;11.70;99.90
16968;DHT22;64862;54.398;10.126;2023-05-01T23:08:16;11.70;99.90
16968;DHT22;64862;54.398;10.126;2023-05-01T23:18:21;11.80;99.90
16968;DHT22;64862;54.398;10.126;2023-05-01T23:28:26;11.80;99.90
16968;DHT22;64862;54.398;10.126;2023-05-01T23:38:29;11.70;99.90
16968;DHT22;64862;54.398;10.126;2023-05-01T23:48:33;11.70;99.90
16968;DHT22;64862;54.398;10.126;2023-05-01T23:58:35;11.80;99.90
